createdAt,value
2018-01-27T00:01:53.654Z,6.70
2018-01-27T00:04:20.571Z,6.70
2018-01-27T00:06:46.772Z,6.70
2018-01-27T00:09:13.033Z,6.80
2018-01-27T00:11:42.021Z,6.90
2018-01-27T00:14:08.977Z,6.90
2018-01-27T00:16:35.126Z,6.90
2018-01-27T00:19:02.069Z,6.90
2018-01-27T00:21:28.254Z,6.80
2018-01-27T00:23:54.400Z,7.00
2018-01-27T00:26:20.559Z,6.90
2018-01-27T00:28:46.756Z,6.80
2018-01-27T00:31:12.941Z,6.90
2018-01-27T00:33:39.110Z,6.90
2018-01-27T00:36:05.291Z,6.90
2018-01-27T00:38:31.486Z,6.80
2018-01-27T00:40:58.396Z,6.70
2018-01-27T00:43:24.658Z,6.70
2018-01-27T00:45:51.579Z,6.60
2018-01-27T00:48:17.695Z,6.60
2018-01-27T00:50:43.923Z,6.50
2018-01-27T00:53:10.834Z,6.80
2018-01-27T00:55:37.003Z,6.80
2018-01-27T00:58:03.270Z,6.80
2018-01-27T01:00:29.506Z,6.80
2018-01-27T01:02:55.700Z,6.80
2018-01-27T01:05:22.627Z,6.80
2018-01-27T01:07:49.586Z,6.90
2018-01-27T01:10:16.507Z,6.90
2018-01-27T01:12:42.723Z,6.80
2018-01-27T01:15:08.886Z,6.90
2018-01-27T01:17:35.866Z,6.90
2018-01-27T01:20:02.094Z,6.90
2018-01-27T01:22:28.230Z,6.80
2018-01-27T01:24:54.469Z,6.80
2018-01-27T01:27:20.666Z,6.80
2018-01-27T01:29:46.848Z,6.80
2018-01-27T01:32:13.055Z,6.90
2018-01-27T01:34:39.249Z,6.80
2018-01-27T01:37:05.405Z,6.90
2018-01-27T01:39:31.602Z,6.80
2018-01-27T01:41:57.790Z,6.80
2018-01-27T01:44:25.978Z,7.00
2018-01-27T01:46:52.934Z,6.80
2018-01-27T01:49:22.930Z,6.80
2018-01-27T01:51:49.173Z,6.80
2018-01-27T01:54:16.102Z,6.70
2018-01-27T01:56:42.310Z,6.70
2018-01-27T01:59:08.495Z,6.70
2018-01-27T02:01:34.720Z,6.80
2018-01-27T02:04:00.873Z,6.70
2018-01-27T02:06:27.143Z,6.70
2018-01-27T02:08:53.435Z,6.60
2018-01-27T02:11:19.686Z,6.60
2018-01-27T02:13:45.874Z,6.60
2018-01-27T02:16:12.113Z,6.60
2018-01-27T02:18:38.326Z,6.60
2018-01-27T02:21:04.536Z,6.70
2018-01-27T02:23:31.454Z,6.70
2018-01-27T02:25:58.375Z,6.70
2018-01-27T02:28:24.559Z,6.70
2018-01-27T02:30:51.499Z,6.60
2018-01-27T02:33:18.459Z,6.70
2018-01-27T02:35:44.675Z,6.70
2018-01-27T02:38:11.615Z,6.70
2018-01-27T02:40:38.487Z,6.70
2018-01-27T02:43:04.723Z,6.70
2018-01-27T02:45:30.899Z,6.70
2018-01-27T02:47:57.088Z,6.70
2018-01-27T02:50:23.313Z,6.70
2018-01-27T02:52:49.510Z,6.80
2018-01-27T02:55:15.685Z,6.80
2018-01-27T02:57:41.873Z,6.70
2018-01-27T03:00:08.125Z,6.80
2018-01-27T03:02:34.322Z,6.80
2018-01-27T03:05:00.513Z,6.70
2018-01-27T03:07:26.720Z,6.70
2018-01-27T03:09:52.930Z,6.70
2018-01-27T03:12:19.182Z,6.70
2018-01-27T03:14:45.434Z,6.60
2018-01-27T03:17:12.303Z,6.60
2018-01-27T03:19:38.491Z,6.60
2018-01-27T03:22:04.720Z,6.60
2018-01-27T03:24:31.651Z,6.50
2018-01-27T03:26:57.787Z,6.50
2018-01-27T03:29:23.979Z,6.70
2018-01-27T03:31:50.128Z,6.60
2018-01-27T03:34:16.306Z,6.50
2018-01-27T03:36:42.510Z,6.50
2018-01-27T03:39:09.460Z,6.60
2018-01-27T03:41:35.698Z,6.60
2018-01-27T03:44:02.657Z,6.50
2018-01-27T03:46:29.524Z,6.60
2018-01-27T03:48:55.680Z,6.60
2018-01-27T03:51:21.890Z,6.60
2018-01-27T03:53:48.113Z,6.50
2018-01-27T03:56:14.294Z,6.50
2018-01-27T03:58:41.269Z,6.50
2018-01-27T04:01:07.438Z,6.50
2018-01-27T04:03:33.645Z,6.40
2018-01-27T04:05:59.852Z,6.50
2018-01-27T04:08:26.075Z,6.50
2018-01-27T04:10:52.270Z,6.50
2018-01-27T04:13:18.458Z,6.40
2018-01-27T04:15:44.642Z,6.40
2018-01-27T04:18:11.594Z,6.50
2018-01-27T04:20:38.518Z,6.50
2018-01-27T04:23:04.736Z,6.50
2018-01-27T04:25:30.856Z,6.60
2018-01-27T04:27:57.053Z,6.60
2018-01-27T04:30:23.257Z,6.60
2018-01-27T04:32:49.470Z,6.60
2018-01-27T04:35:16.458Z,6.50
2018-01-27T04:37:42.620Z,6.50
2018-01-27T04:40:08.821Z,6.40
2018-01-27T04:42:34.992Z,6.40
2018-01-27T04:45:01.168Z,6.50
2018-01-27T04:47:27.394Z,6.50
2018-01-27T04:49:53.560Z,6.50
2018-01-27T04:52:19.731Z,6.60
2018-01-27T04:54:45.900Z,6.50
2018-01-27T04:57:12.077Z,6.50
2018-01-27T04:59:38.218Z,6.40
2018-01-27T05:02:04.342Z,6.30
2018-01-27T05:04:30.503Z,6.20
2018-01-27T05:06:56.660Z,6.30
2018-01-27T05:09:23.606Z,6.30
2018-01-27T05:11:50.581Z,6.30
2018-01-27T05:14:16.811Z,6.20
2018-01-27T05:16:43.795Z,6.30
2018-01-27T05:19:10.956Z,6.30
2018-01-27T05:21:37.499Z,6.30
2018-01-27T05:24:03.958Z,6.30
2018-01-27T05:26:30.358Z,6.30
2018-01-27T05:28:56.840Z,6.20
2018-01-27T05:31:23.219Z,6.20
2018-01-27T05:33:49.699Z,6.10
2018-01-27T05:36:16.064Z,6.10
2018-01-27T05:38:42.597Z,6.20
2018-01-27T05:41:08.996Z,6.30
2018-01-27T05:43:35.346Z,6.30
2018-01-27T05:57:35.881Z,6.40
2018-01-27T06:00:09.240Z,6.30
2018-01-27T06:05:42.423Z,6.40
2018-01-27T06:28:50.671Z,5.90
2018-01-27T06:34:11.685Z,6.00
2018-01-27T06:39:40.166Z,6.10
2018-01-27T06:45:15.630Z,6.00
2018-01-27T06:47:41.889Z,5.90
2018-01-27T06:50:09.641Z,6.00
2018-01-27T06:52:36.130Z,6.00
2018-01-27T06:55:02.568Z,6.00
2018-01-27T06:57:28.812Z,5.80
2018-01-27T06:59:55.021Z,5.60
2018-01-27T07:02:21.183Z,5.60
2018-01-27T07:04:47.338Z,5.70
2018-01-27T07:07:14.227Z,5.60
2018-01-27T07:09:40.373Z,5.60
2018-01-27T07:12:06.596Z,5.60
2018-01-27T07:14:32.784Z,5.70
2018-01-27T07:16:58.940Z,5.80
2018-01-27T07:19:25.117Z,5.80
2018-01-27T07:21:52.038Z,5.80
2018-01-27T07:24:18.226Z,5.80
2018-01-27T07:26:44.421Z,5.80
2018-01-27T07:29:11.332Z,5.90
2018-01-27T07:31:38.278Z,5.80
2018-01-27T07:34:05.263Z,5.80
2018-01-27T07:36:32.171Z,5.80
2018-01-27T07:38:58.416Z,5.80
2018-01-27T07:41:25.350Z,5.70
2018-01-27T07:43:51.588Z,5.70
2018-01-27T07:46:18.538Z,5.80
2018-01-27T07:48:45.532Z,5.80
2018-01-27T07:51:11.775Z,5.80
2018-01-27T07:53:39.959Z,5.70
2018-01-27T07:56:06.934Z,5.70
2018-01-27T07:58:33.842Z,5.80
2018-01-27T08:01:00.030Z,5.80
2018-01-27T08:03:26.262Z,5.90
2018-01-27T08:05:52.521Z,5.90
2018-01-27T08:08:18.678Z,5.90
2018-01-27T08:10:44.934Z,6.00
2018-01-27T08:13:11.126Z,5.90
2018-01-27T08:15:37.295Z,6.00
2018-01-27T08:18:03.447Z,6.00
2018-01-27T08:20:29.686Z,6.10
2018-01-27T08:23:02.831Z,6.20
2018-01-27T08:25:29.806Z,6.40
2018-01-27T08:27:55.994Z,6.30
2018-01-27T08:30:22.961Z,6.40
2018-01-27T08:32:49.096Z,6.40
2018-01-27T08:35:17.045Z,6.50
2018-01-27T08:37:45.287Z,6.50
2018-01-27T08:40:13.549Z,6.40
2018-01-27T08:42:40.371Z,6.30
2018-01-27T08:45:06.705Z,6.40
2018-01-27T08:47:32.944Z,6.30
2018-01-27T08:49:59.177Z,6.30
2018-01-27T08:52:25.341Z,6.20
2018-01-27T08:54:52.315Z,6.20
2018-01-27T08:57:22.076Z,6.20
2018-01-27T08:59:48.299Z,6.30
2018-01-27T09:02:14.458Z,6.30
2018-01-27T09:04:42.377Z,6.40
2018-01-27T09:07:08.514Z,6.40
2018-01-27T09:09:34.731Z,6.50
2018-01-27T09:12:00.966Z,6.40
2018-01-27T09:14:27.186Z,6.50
2018-01-27T09:16:53.480Z,6.50
2018-01-27T09:19:20.419Z,6.50
2018-01-27T09:21:47.353Z,6.50
2018-01-27T09:24:14.300Z,6.50
2018-01-27T09:26:41.293Z,6.50
2018-01-27T09:29:07.574Z,6.50
2018-01-27T09:31:34.502Z,6.50
2018-01-27T09:34:00.696Z,6.50
2018-01-27T09:36:26.888Z,6.50
2018-01-27T09:38:53.884Z,6.60
2018-01-27T09:41:20.008Z,6.60
2018-01-27T09:43:46.282Z,6.60
2018-01-27T09:46:13.907Z,6.50
2018-01-27T09:48:40.120Z,6.50
2018-01-27T09:51:06.325Z,6.30
2018-01-27T09:53:39.604Z,6.30
2018-01-27T09:56:05.849Z,6.40
2018-01-27T09:58:32.011Z,6.50
2018-01-27T10:00:58.205Z,6.60
2018-01-27T10:03:24.387Z,6.70
2018-01-27T10:05:50.514Z,6.80
2018-01-27T10:08:17.499Z,7.10
2018-01-27T10:10:43.658Z,7.10
2018-01-27T10:13:09.772Z,7.10
2018-01-27T10:15:35.979Z,7.20
2018-01-27T10:18:02.170Z,7.20
2018-01-27T10:20:28.345Z,7.30
2018-01-27T10:22:54.590Z,7.50
2018-01-27T10:25:20.798Z,7.60
2018-01-27T10:27:47.042Z,7.70
2018-01-27T10:30:13.286Z,7.80
2018-01-27T10:32:39.451Z,7.80
2018-01-27T10:35:06.455Z,7.80
2018-01-27T10:37:32.646Z,7.80
2018-01-27T10:39:58.898Z,7.80
2018-01-27T10:42:25.118Z,7.80
2018-01-27T10:44:53.274Z,7.70
2018-01-27T10:47:19.433Z,7.90
2018-01-27T10:49:45.653Z,8.00
2018-01-27T10:52:11.898Z,8.10
2018-01-27T10:54:38.089Z,8.20
2018-01-27T10:57:04.280Z,8.30
2018-01-27T10:59:31.214Z,8.10
2018-01-27T11:01:57.402Z,8.10
2018-01-27T11:04:23.576Z,8.00
2018-01-27T11:06:50.488Z,7.90
2018-01-27T11:09:16.697Z,7.90
2018-01-27T11:11:42.963Z,7.90
2018-01-27T11:14:09.271Z,8.00
2018-01-27T11:16:39.438Z,8.10
2018-01-27T11:19:06.352Z,7.90
2018-01-27T11:21:32.636Z,7.90
2018-01-27T11:23:58.878Z,8.00
2018-01-27T11:26:25.097Z,8.10
2018-01-27T11:28:51.315Z,8.00
2018-01-27T11:31:19.294Z,8.00
2018-01-27T11:33:45.495Z,8.00
2018-01-27T11:36:12.438Z,8.20
2018-01-27T11:38:39.337Z,8.30
2018-01-27T11:41:05.527Z,8.30
2018-01-27T11:43:32.461Z,8.30
2018-01-27T11:45:59.484Z,8.30
2018-01-27T11:48:25.720Z,8.20
2018-01-27T11:50:51.921Z,8.20
2018-01-27T11:53:18.153Z,8.30
2018-01-27T11:55:44.413Z,8.40
2018-01-27T11:58:11.473Z,8.40
2018-01-27T12:00:39.474Z,8.40
2018-01-27T12:03:05.653Z,8.40
2018-01-27T12:05:31.841Z,8.40
2018-01-27T12:07:58.044Z,8.40
2018-01-27T12:10:24.220Z,8.40
2018-01-27T12:12:50.465Z,8.30
2018-01-27T12:15:17.429Z,8.30
2018-01-27T12:17:43.680Z,8.30
2018-01-27T12:20:09.922Z,8.30
2018-01-27T12:22:36.154Z,8.30
2018-01-27T12:25:03.084Z,8.10
2018-01-27T12:27:29.314Z,8.10
2018-01-27T12:29:55.534Z,8.00
2018-01-27T12:32:21.700Z,8.00
2018-01-27T12:34:47.945Z,8.10
2018-01-27T12:37:14.133Z,8.20
2018-01-27T12:39:40.337Z,8.10
2018-01-27T12:42:06.522Z,8.20
2018-01-27T12:44:32.722Z,8.20
2018-01-27T12:46:58.897Z,8.20
2018-01-27T12:49:25.812Z,8.10
2018-01-27T12:51:51.970Z,8.10
2018-01-27T12:54:18.891Z,8.10
2018-01-27T12:56:45.857Z,8.20
2018-01-27T12:59:13.792Z,8.00
2018-01-27T13:01:39.961Z,8.00
2018-01-27T13:04:06.899Z,7.90
2018-01-27T13:06:33.810Z,8.00
2018-01-27T13:09:00.025Z,8.00
2018-01-27T13:11:26.251Z,7.90
2018-01-27T13:13:52.465Z,7.80
2018-01-27T13:16:18.718Z,7.90
2018-01-27T13:18:44.926Z,7.80
2018-01-27T13:21:11.161Z,7.80
2018-01-27T13:23:37.398Z,7.90
2018-01-27T13:26:03.645Z,7.90
2018-01-27T13:28:29.795Z,7.90
2018-01-27T13:30:56.714Z,7.70
2018-01-27T13:33:23.686Z,7.80
2018-01-27T13:35:50.680Z,7.80
2018-01-27T13:38:16.916Z,7.80
2018-01-27T13:40:43.103Z,7.90
2018-01-27T13:43:10.062Z,7.80
2018-01-27T13:45:36.312Z,7.80
2018-01-27T13:48:02.597Z,7.90
2018-01-27T13:50:29.506Z,7.90
2018-01-27T13:52:55.713Z,7.90
2018-01-27T13:55:21.960Z,7.90
2018-01-27T13:57:48.114Z,7.90
2018-01-27T14:00:14.366Z,7.90
2018-01-27T14:02:40.612Z,7.80
2018-01-27T14:05:06.764Z,7.90
2018-01-27T14:07:32.920Z,7.90
2018-01-27T14:10:00.922Z,7.90
2018-01-27T14:12:27.123Z,7.90
2018-01-27T14:14:53.292Z,7.90
2018-01-27T14:17:20.962Z,7.90
2018-01-27T14:19:47.130Z,7.90
2018-01-27T14:22:13.368Z,7.90
2018-01-27T14:24:39.573Z,7.90
2018-01-27T14:27:05.776Z,7.90
2018-01-27T14:29:31.944Z,7.90
2018-01-27T14:31:58.175Z,7.90
2018-01-27T14:34:24.340Z,7.80
2018-01-27T14:36:50.468Z,7.80
2018-01-27T14:39:16.703Z,7.80
2018-01-27T14:41:42.930Z,8.00
2018-01-27T14:44:09.140Z,7.90
2018-01-27T14:46:35.318Z,7.90
2018-01-27T14:49:01.570Z,7.90
2018-01-27T14:51:28.532Z,7.90
2018-01-27T14:53:55.462Z,7.90
2018-01-27T14:56:22.465Z,7.90
2018-01-27T14:58:48.596Z,7.90
2018-01-27T15:01:14.762Z,7.90
2018-01-27T15:03:41.727Z,8.00
2018-01-27T15:06:08.657Z,7.80
2018-01-27T15:08:35.574Z,7.80
2018-01-27T15:11:01.796Z,7.80
2018-01-27T15:13:27.979Z,7.80
2018-01-27T15:15:54.128Z,7.80
2018-01-27T15:18:20.332Z,7.80
2018-01-27T15:20:46.565Z,7.70
2018-01-27T15:23:12.785Z,7.70
2018-01-27T15:25:39.671Z,7.70
2018-01-27T15:28:05.877Z,7.70
2018-01-27T15:30:32.059Z,7.70
2018-01-27T15:32:58.291Z,7.70
2018-01-27T15:35:25.915Z,7.60
2018-01-27T15:37:53.195Z,7.60
2018-01-27T15:40:20.692Z,7.60
2018-01-27T15:42:55.379Z,7.50
2018-01-27T15:45:21.602Z,7.50
2018-01-27T15:47:47.781Z,7.50
2018-01-27T15:50:14.010Z,7.50
2018-01-27T15:52:40.216Z,7.40
2018-01-27T15:55:06.373Z,7.40
2018-01-27T15:57:32.497Z,7.30
2018-01-27T15:59:58.675Z,7.20
2018-01-27T16:02:24.891Z,7.20
2018-01-27T16:04:51.031Z,7.20
2018-01-27T16:07:17.226Z,7.20
2018-01-27T16:09:43.439Z,7.20
2018-01-27T16:12:09.569Z,7.20
2018-01-27T16:14:36.122Z,7.10
2018-01-27T16:17:02.334Z,7.10
2018-01-27T16:19:28.517Z,7.10
2018-01-27T16:21:55.431Z,7.10
2018-01-27T16:24:21.671Z,7.10
2018-01-27T16:26:47.803Z,7.10
2018-01-27T16:29:13.960Z,7.10
2018-01-27T16:31:40.214Z,7.10
2018-01-27T16:34:06.377Z,7.00
2018-01-27T16:36:32.619Z,6.90
2018-01-27T16:38:59.521Z,7.00
2018-01-27T16:41:25.721Z,7.00
2018-01-27T16:43:51.909Z,7.00
2018-01-27T16:46:18.084Z,7.00
2018-01-27T16:48:44.390Z,6.90
2018-01-27T16:51:10.613Z,6.90
2018-01-27T16:53:37.508Z,6.80
2018-01-27T16:56:04.819Z,6.80
2018-01-27T16:58:31.017Z,6.90
2018-01-27T17:00:57.211Z,6.90
2018-01-27T17:03:23.418Z,6.90
2018-01-27T17:05:49.607Z,6.80
2018-01-27T17:08:15.772Z,6.70
2018-01-27T17:10:41.931Z,6.70
2018-01-27T17:13:08.100Z,6.60
2018-01-27T17:15:34.982Z,6.50
2018-01-27T17:18:01.239Z,6.60
2018-01-27T17:20:27.456Z,6.60
2018-01-27T17:22:53.673Z,6.40
2018-01-27T17:25:19.839Z,6.30
2018-01-27T17:27:46.033Z,6.30
2018-01-27T17:30:12.256Z,6.20
2018-01-27T17:32:38.452Z,6.10
2018-01-27T17:35:04.630Z,6.10
2018-01-27T17:37:30.842Z,6.00
2018-01-27T17:39:57.036Z,6.00
2018-01-27T17:42:23.982Z,5.80
2018-01-27T17:44:50.190Z,5.80
2018-01-27T17:47:17.155Z,5.70
2018-01-27T17:49:43.420Z,5.70
2018-01-27T17:52:09.621Z,5.60
2018-01-27T17:54:35.826Z,5.60
2018-01-27T17:57:02.800Z,5.50
2018-01-27T17:59:28.985Z,5.50
2018-01-27T18:01:55.201Z,5.30
2018-01-27T18:04:21.360Z,5.30
2018-01-27T18:06:48.363Z,5.10
2018-01-27T18:09:14.522Z,5.10
2018-01-27T18:11:41.437Z,5.10
2018-01-27T18:14:07.631Z,5.00
2018-01-27T18:16:33.853Z,4.90
2018-01-27T18:19:00.028Z,4.80
2018-01-27T18:21:26.982Z,4.70
2018-01-27T18:23:53.140Z,4.70
2018-01-27T18:26:20.070Z,4.60
2018-01-27T18:28:46.941Z,4.60
2018-01-27T18:31:13.106Z,4.60
2018-01-27T18:33:39.405Z,4.70
2018-01-27T18:36:05.606Z,4.70
2018-01-27T18:38:32.578Z,4.50
2018-01-27T18:40:58.782Z,4.50
2018-01-27T18:43:25.709Z,4.30
2018-01-27T18:45:52.668Z,4.40
2018-01-27T18:48:19.665Z,4.30
2018-01-27T18:50:45.891Z,4.20
2018-01-27T18:53:12.134Z,4.30
2018-01-27T18:55:39.084Z,4.20
2018-01-27T18:58:06.027Z,4.20
2018-01-27T19:00:32.205Z,4.20
2018-01-27T19:02:58.498Z,4.20
2018-01-27T19:05:24.728Z,4.20
2018-01-27T19:07:51.681Z,4.20
2018-01-27T19:10:18.719Z,4.10
2018-01-27T19:12:45.708Z,4.20
2018-01-27T19:15:11.944Z,4.20
2018-01-27T19:17:38.187Z,4.20
2018-01-27T19:20:04.380Z,4.20
2018-01-27T19:22:30.582Z,4.20
2018-01-27T19:24:57.498Z,4.00
2018-01-27T19:27:23.635Z,4.00
2018-01-27T19:29:49.803Z,4.00
2018-01-27T19:32:16.723Z,4.00
2018-01-27T19:34:43.033Z,3.90
2018-01-27T19:37:10.047Z,3.90
2018-01-27T19:39:36.356Z,3.90
2018-01-27T19:42:02.653Z,3.90
2018-01-27T19:44:28.949Z,3.90
2018-01-27T19:46:55.243Z,3.90
2018-01-27T19:49:21.553Z,3.70
2018-01-27T19:51:48.550Z,3.70
2018-01-27T19:54:14.943Z,3.70
2018-01-27T19:56:42.086Z,3.60
2018-01-27T19:59:13.424Z,3.50
2018-01-27T20:01:40.059Z,3.50
2018-01-27T20:04:06.329Z,3.50
2018-01-27T20:06:32.711Z,3.40
2018-01-27T20:09:18.726Z,3.40
2018-01-27T20:11:47.013Z,3.30
2018-01-27T20:14:14.273Z,3.40
2018-01-27T20:16:44.070Z,3.40
2018-01-27T20:19:10.857Z,3.30
2018-01-27T20:21:44.289Z,3.20
2018-01-27T20:24:10.612Z,3.20
2018-01-27T20:26:37.032Z,3.20
2018-01-27T20:29:04.328Z,3.20
2018-01-27T20:31:31.681Z,3.00
2018-01-27T20:33:58.981Z,3.00
2018-01-27T20:36:25.541Z,3.00
2018-01-27T20:38:52.206Z,2.90
2018-01-27T20:41:20.103Z,2.80
2018-01-27T20:43:46.716Z,2.80
2018-01-27T20:46:13.966Z,2.90
2018-01-27T20:48:40.518Z,2.80
2018-01-27T20:51:07.078Z,2.80
2018-01-27T20:53:33.596Z,2.70
2018-01-27T20:56:00.075Z,2.80
2018-01-27T20:58:26.592Z,3.10
2018-01-27T21:00:53.193Z,3.00
2018-01-27T21:03:20.127Z,3.10
2018-01-27T21:05:46.534Z,3.20
2018-01-27T21:08:13.122Z,3.20
2018-01-27T21:10:39.554Z,3.30
2018-01-27T21:13:06.051Z,3.30
2018-01-27T21:15:32.710Z,3.20
2018-01-27T21:17:59.286Z,3.20
2018-01-27T21:20:25.786Z,3.20
2018-01-27T21:22:52.176Z,3.20
2018-01-27T21:25:18.335Z,3.10
2018-01-27T21:27:45.394Z,3.10
2018-01-27T21:30:11.812Z,3.10
2018-01-27T21:32:39.062Z,3.60
2018-01-27T21:35:06.440Z,3.60
2018-01-27T21:37:32.673Z,3.60
2018-01-27T21:39:58.897Z,3.50
2018-01-27T21:42:25.119Z,3.60
2018-01-27T21:44:51.347Z,3.50
2018-01-27T21:47:17.515Z,3.50
2018-01-27T21:49:44.015Z,3.50
2018-01-27T21:52:10.283Z,3.60
2018-01-27T21:54:37.443Z,3.60
2018-01-27T21:57:03.894Z,3.60
2018-01-27T21:59:30.976Z,3.50
2018-01-27T22:01:57.244Z,3.50
2018-01-27T22:04:23.699Z,3.60
2018-01-27T22:06:49.974Z,3.70
2018-01-27T22:09:16.402Z,3.70
2018-01-27T22:11:42.612Z,3.60
2018-01-27T22:14:09.644Z,3.50
2018-01-27T22:16:36.648Z,3.60
2018-01-27T22:19:02.820Z,3.60
2018-01-27T22:21:29.059Z,3.60
2018-01-27T22:23:55.960Z,3.70
2018-01-27T22:26:22.158Z,3.70
2018-01-27T22:28:48.374Z,3.70
2018-01-27T22:31:14.558Z,3.80
2018-01-27T22:33:40.759Z,3.80
2018-01-27T22:36:06.944Z,3.80
2018-01-27T22:38:33.840Z,3.90
2018-01-27T22:41:00.008Z,3.90
2018-01-27T22:43:26.970Z,4.00
2018-01-27T22:45:53.162Z,4.00
2018-01-27T22:48:20.104Z,4.00
2018-01-27T22:50:46.999Z,4.00
2018-01-27T22:53:13.227Z,4.00
2018-01-27T22:55:39.394Z,4.20
2018-01-27T22:58:06.315Z,4.10
2018-01-27T23:00:32.586Z,4.10
2018-01-27T23:03:06.579Z,4.20
2018-01-27T23:05:33.030Z,4.20
2018-01-27T23:07:59.537Z,4.20
2018-01-27T23:10:26.189Z,4.20
2018-01-27T23:12:53.186Z,4.10
2018-01-27T23:15:19.569Z,4.10
2018-01-27T23:17:45.994Z,4.20
2018-01-27T23:20:12.239Z,4.10
2018-01-27T23:22:38.442Z,4.20
2018-01-27T23:25:04.612Z,4.20
2018-01-27T23:27:31.536Z,4.30
2018-01-27T23:29:57.755Z,4.30
2018-01-27T23:32:23.969Z,4.30
2018-01-27T23:34:50.262Z,4.30
2018-01-27T23:37:16.502Z,4.30
2018-01-27T23:39:42.747Z,4.30
2018-01-27T23:42:08.967Z,4.30
2018-01-27T23:44:35.196Z,4.30
2018-01-27T23:47:01.413Z,4.40
2018-01-27T23:49:27.661Z,4.40
2018-01-27T23:51:53.858Z,4.40
2018-01-27T23:54:20.096Z,4.40
2018-01-27T23:56:46.250Z,4.40
2018-01-27T23:59:12.502Z,4.40
